Time;durP1;ratioP1;P1;durP2;ratioP2;P2;SDS_P1;SDS_P2;PMS_P1;PMS_P2;Temp;Humidity;BMP_temperature;BMP_pressure;BME280_temperature;BME280_humidity;BME280_pressure;Samples;Min_cycle;Max_cycle;Signal;HPM_P1;HPM_P2
2022/10/08 00:00:03;;;;;;;6.78;3.05;;;;;;;;;;5053778;28;20068;-69
2022/10/08 00:02:29;;;;;;;9.68;2.95;;;;;;;;;;5054194;28;20041;-68
2022/10/08 00:04:56;;;;;;;11.82;3.53;;;;;;;;;;5065892;28;20055;-68
2022/10/08 00:07:23;;;;;;;11.13;4.10;;;;;;;;;;5054587;28;20037;-68
2022/10/08 00:09:49;;;;;;;9.75;4.07;;;;;;;;;;5057812;28;20044;-68
2022/10/08 00:12:18;;;;;;;5.70;3.28;;;;;;;;;;5069934;28;20515;-68
2022/10/08 00:14:44;;;;;;;6.53;3.08;;;;;;;;;;5071376;28;20041;-68
2022/10/08 00:17:10;;;;;;;5.78;2.75;;;;;;;;;;5054641;28;20601;-68
2022/10/08 00:19:36;;;;;;;8.98;3.20;;;;;;;;;;5053709;28;20044;-68
2022/10/08 00:22:02;;;;;;;20.08;4.07;;;;;;;;;;5055608;28;20175;-68
2022/10/08 00:24:28;;;;;;;7.30;3.15;;;;;;;;;;5069203;28;20045;-68
2022/10/08 00:26:54;;;;;;;6.70;3.58;;;;;;;;;;5052045;28;20045;-68
2022/10/08 00:29:21;;;;;;;10.13;3.00;;;;;;;;;;5055521;28;20037;-68
2022/10/08 00:31:48;;;;;;;5.65;2.90;;;;;;;;;;5068548;28;20049;-68
2022/10/08 00:34:16;;;;;;;5.95;3.55;;;;;;;;;;5069684;28;20039;-68
2022/10/08 00:36:42;;;;;;;9.45;3.10;;;;;;;;;;5052722;28;20041;-68
2022/10/08 00:39:13;;;;;;;11.30;3.97;;;;;;;;;;5051425;28;21753;-67
2022/10/08 00:41:40;;;;;;;8.80;3.35;;;;;;;;;;5069287;28;20087;-68
2022/10/08 00:44:25;;;;;;;11.18;2.63;;;;;;;;;;5053427;28;20581;-67
2022/10/08 00:46:53;;;;;;;8.07;2.47;;;;;;;;;;5052970;28;20464;-67
2022/10/08 00:49:20;;;;;;;8.73;4.47;;;;;;;;;;5054008;28;20088;-68
2022/10/08 00:51:52;;;;;;;13.23;3.55;;;;;;;;;;5062154;28;21172;-67
2022/10/08 00:54:19;;;;;;;12.90;3.15;;;;;;;;;;5067295;28;20126;-68
2022/10/08 00:56:47;;;;;;;7.85;3.75;;;;;;;;;;5053456;28;20044;-68
2022/10/08 00:59:13;;;;;;;9.52;3.63;;;;;;;;;;5069003;28;20132;-67
2022/10/08 01:01:41;;;;;;;7.65;3.17;;;;;;;;;;5068905;28;20076;-67
2022/10/08 01:04:08;;;;;;;9.73;3.72;;;;;;;;;;5052396;28;20096;-68
2022/10/08 01:06:34;;;;;;;8.80;2.88;;;;;;;;;;5051921;28;20042;-67
2022/10/08 01:09:20;;;;;;;4.63;2.47;;;;;;;;;;5068409;28;20179;-68
2022/10/08 01:11:55;;;;;;;10.48;3.25;;;;;;;;;;5037181;28;20049;-67
2022/10/08 01:14:24;;;;;;;6.53;2.58;;;;;;;;;;5068038;28;20045;-68
2022/10/08 01:16:58;;;;;;;8.68;2.88;;;;;;;;;;5052778;28;20071;-67
2022/10/08 01:19:33;;;;;;;7.07;2.65;;;;;;;;;;5052534;28;20156;-68
2022/10/08 01:21:59;;;;;;;7.18;2.95;;;;;;;;;;5050941;28;20037;-67
2022/10/08 01:25:31;;;;;;;6.38;2.92;;;;;;;;;;5050061;28;20099;-67
2022/10/08 01:27:18;;;;;;;5.25;3.28;;;;;;;;;;5051148;28;20085;-68
2022/10/08 01:29:46;;;;;;;8.27;3.40;;;;;;;;;;5052245;28;20048;-67
2022/10/08 01:32:23;;;;;;;7.97;3.28;;;;;;;;;;5063604;28;20037;-69
2022/10/08 01:34:52;;;;;;;6.20;3.13;;;;;;;;;;5050805;28;20071;-67
2022/10/08 01:37:27;;;;;;;7.55;4.30;;;;;;;;;;5048138;28;20538;-67
2022/10/08 01:39:54;;;;;;;6.28;3.10;;;;;;;;;;5065433;28;20045;-67
2022/10/08 01:42:22;;;;;;;10.50;3.30;;;;;;;;;;5050902;28;20075;-67
2022/10/08 01:44:50;;;;;;;11.65;3.40;;;;;;;;;;5056513;28;20156;-67
2022/10/08 01:47:19;;;;;;;7.18;2.90;;;;;;;;;;5049909;28;20718;-67
2022/10/08 01:49:50;;;;;;;8.88;2.70;;;;;;;;;;5049346;28;20044;-67
2022/10/08 01:52:32;;;;;;;13.30;3.20;;;;;;;;;;5065789;28;20040;-67
2022/10/08 01:55:00;;;;;;;6.30;3.67;;;;;;;;;;5050616;28;20041;-67
2022/10/08 01:57:27;;;;;;;10.85;2.80;;;;;;;;;;5051336;28;20050;-67
2022/10/08 01:59:55;;;;;;;11.77;3.30;;;;;;;;;;5065121;28;20108;-67
2022/10/08 02:02:23;;;;;;;6.30;3.53;;;;;;;;;;5048896;28;20040;-67
2022/10/08 02:04:52;;;;;;;9.25;3.22;;;;;;;;;;5048932;28;20033;-67
2022/10/08 02:07:30;;;;;;;5.97;2.55;;;;;;;;;;5065032;28;20124;-68
2022/10/08 02:10:10;;;;;;;9.13;3.13;;;;;;;;;;5068209;28;20045;-68
2022/10/08 02:12:38;;;;;;;9.98;2.83;;;;;;;;;;5049595;28;20104;-68
2022/10/08 02:15:06;;;;;;;10.85;4.30;;;;;;;;;;5064331;28;20482;-67
2022/10/08 02:17:41;;;;;;;7.63;3.30;;;;;;;;;;5045996;28;20041;-67
2022/10/08 02:20:26;;;;;;;8.82;3.47;;;;;;;;;;5050217;28;20214;-67
2022/10/08 02:22:59;;;;;;;7.80;3.50;;;;;;;;;;5067155;28;20041;-68
2022/10/08 02:26:04;;;;;;;9.23;3.38;;;;;;;;;;5050141;28;20052;-67
2022/10/08 02:28:35;;;;;;;8.20;2.78;;;;;;;;;;5012117;28;20410;-68
2022/10/08 02:31:15;;;;;;;7.32;2.42;;;;;;;;;;5030825;28;20627;-68
2022/10/08 02:33:54;;;;;;;7.22;2.55;;;;;;;;;;5033461;28;22448;-68
2022/10/08 02:36:25;;;;;;;7.22;2.97;;;;;;;;;;5071306;28;20081;-68
2022/10/08 02:38:53;;;;;;;5.97;3.63;;;;;;;;;;5052997;28;20099;-68
2022/10/08 02:41:21;;;;;;;8.50;3.22;;;;;;;;;;5052822;28;20172;-68
2022/10/08 02:43:48;;;;;;;8.52;3.22;;;;;;;;;;5052764;28;20344;-68
2022/10/08 02:46:22;;;;;;;7.95;2.65;;;;;;;;;;5064883;28;20033;-67
2022/10/08 02:48:52;;;;;;;12.30;2.60;;;;;;;;;;5052050;28;20390;-67
2022/10/08 02:51:20;;;;;;;6.07;2.75;;;;;;;;;;5071682;28;20045;-67
2022/10/08 02:53:48;;;;;;;5.18;2.78;;;;;;;;;;5072231;28;20092;-67
2022/10/08 02:56:20;;;;;;;6.68;2.25;;;;;;;;;;5071105;28;20037;-68
2022/10/08 02:58:46;;;;;;;6.55;2.33;;;;;;;;;;5054550;28;20049;-67
2022/10/08 03:01:15;;;;;;;5.75;2.83;;;;;;;;;;5053113;28;20527;-67
2022/10/08 03:03:44;;;;;;;7.15;3.22;;;;;;;;;;5056565;28;20052;-68
2022/10/08 03:06:11;;;;;;;4.70;2.40;;;;;;;;;;5071101;28;20041;-67
2022/10/08 03:08:40;;;;;;;5.80;2.42;;;;;;;;;;5069235;28;20490;-67
2022/10/08 03:11:06;;;;;;;8.55;3.78;;;;;;;;;;5070895;28;20275;-68
2022/10/08 03:13:36;;;;;;;14.20;3.55;;;;;;;;;;5055886;28;20427;-67
2022/10/08 03:16:06;;;;;;;7.68;3.22;;;;;;;;;;5053562;28;20037;-68
2022/10/08 03:18:32;;;;;;;6.53;2.70;;;;;;;;;;5048467;28;20132;-68
2022/10/08 03:20:58;;;;;;;9.57;2.70;;;;;;;;;;5053978;28;20066;-68
2022/10/08 03:23:24;;;;;;;4.82;2.22;;;;;;;;;;5071322;28;20037;-68
2022/10/08 03:25:50;;;;;;;8.07;2.47;;;;;;;;;;5071207;28;20107;-68
2022/10/08 03:28:16;;;;;;;9.18;3.70;;;;;;;;;;5071143;28;20076;-68
2022/10/08 03:30:43;;;;;;;5.57;2.58;;;;;;;;;;5055556;28;20040;-68
2022/10/08 03:33:09;;;;;;;6.07;2.50;;;;;;;;;;5071725;28;20049;-68
2022/10/08 03:35:35;;;;;;;5.05;2.53;;;;;;;;;;5070273;28;20060;-68
2022/10/08 03:38:01;;;;;;;6.70;2.60;;;;;;;;;;5055087;28;20041;-67
2022/10/08 03:40:27;;;;;;;6.95;3.60;;;;;;;;;;5054497;28;20902;-67
2022/10/08 03:42:53;;;;;;;6.65;2.58;;;;;;;;;;5071779;28;20043;-68
2022/10/08 03:45:20;;;;;;;8.77;2.95;;;;;;;;;;5055420;28;20120;-68
2022/10/08 03:47:50;;;;;;;4.95;2.28;;;;;;;;;;5068148;28;21239;-68
2022/10/08 03:50:16;;;;;;;5.82;2.00;;;;;;;;;;5070265;28;20076;-68
2022/10/08 03:52:42;;;;;;;7.00;2.20;;;;;;;;;;5055290;28;20110;-67
2022/10/08 03:55:08;;;;;;;8.27;2.95;;;;;;;;;;5056151;28;20033;-68
2022/10/08 03:57:34;;;;;;;8.60;2.40;;;;;;;;;;5056358;28;20044;-68
2022/10/08 04:00:00;;;;;;;5.78;3.00;;;;;;;;;;5054721;28;20130;-68
2022/10/08 04:02:26;;;;;;;9.55;2.55;;;;;;;;;;5056532;28;20110;-68
2022/10/08 04:04:52;;;;;;;4.90;2.83;;;;;;;;;;5071964;28;20045;-67
2022/10/08 04:07:19;;;;;;;6.65;2.47;;;;;;;;;;5055102;28;20045;-68
2022/10/08 04:09:45;;;;;;;4.15;2.33;;;;;;;;;;5052219;28;20615;-68
2022/10/08 04:12:11;;;;;;;11.05;2.60;;;;;;;;;;5067470;28;20065;-68
2022/10/08 04:14:37;;;;;;;8.85;3.03;;;;;;;;;;5056254;28;20047;-68
2022/10/08 04:17:03;;;;;;;7.22;2.58;;;;;;;;;;5053679;28;20076;-68
2022/10/08 04:19:29;;;;;;;11.30;3.05;;;;;;;;;;5054872;28;20064;-68
2022/10/08 04:21:55;;;;;;;11.13;2.85;;;;;;;;;;5068441;28;20046;-68
2022/10/08 04:24:21;;;;;;;5.28;3.33;;;;;;;;;;5055179;28;20778;-68
2022/10/08 04:26:47;;;;;;;6.47;3.08;;;;;;;;;;5054226;28;20045;-68
2022/10/08 04:29:13;;;;;;;4.35;2.80;;;;;;;;;;5070128;28;20041;-67
2022/10/08 04:31:39;;;;;;;7.53;2.60;;;;;;;;;;5055227;28;20047;-68
2022/10/08 04:34:06;;;;;;;11.88;2.53;;;;;;;;;;5068700;28;20117;-68
2022/10/08 04:36:32;;;;;;;4.95;2.15;;;;;;;;;;5051000;28;20056;-68
2022/10/08 04:38:58;;;;;;;9.63;2.50;;;;;;;;;;5052877;28;20042;-68
2022/10/08 04:41:25;;;;;;;5.53;2.30;;;;;;;;;;5068523;28;20043;-68
2022/10/08 04:43:52;;;;;;;7.05;2.65;;;;;;;;;;5061812;28;20049;-67
2022/10/08 04:46:19;;;;;;;5.18;2.83;;;;;;;;;;5069354;28;22460;-68
2022/10/08 04:48:47;;;;;;;7.35;2.50;;;;;;;;;;5052310;28;20497;-68
2022/10/08 04:51:14;;;;;;;5.60;2.47;;;;;;;;;;5052679;28;20052;-68
2022/10/08 04:53:40;;;;;;;4.25;2.72;;;;;;;;;;5069174;28;20061;-68
2022/10/08 04:56:12;;;;;;;4.85;2.08;;;;;;;;;;5070236;28;20049;-68
2022/10/08 04:58:38;;;;;;;6.97;2.15;;;;;;;;;;5069804;28;20029;-68
2022/10/08 05:01:05;;;;;;;12.57;3.08;;;;;;;;;;5070094;28;20052;-68
2022/10/08 05:03:35;;;;;;;6.72;3.08;;;;;;;;;;5066871;28;20573;-68
2022/10/08 05:06:01;;;;;;;4.28;2.17;;;;;;;;;;5053909;28;20128;-68
2022/10/08 05:08:28;;;;;;;9.73;2.63;;;;;;;;;;5053365;28;20047;-68
2022/10/08 05:10:54;;;;;;;5.22;2.55;;;;;;;;;;5068751;28;20558;-68
2022/10/08 05:13:20;;;;;;;12.27;3.55;;;;;;;;;;5053480;28;20037;-68
2022/10/08 05:15:47;;;;;;;8.00;3.63;;;;;;;;;;5050508;28;20072;-68
2022/10/08 05:18:13;;;;;;;5.63;2.40;;;;;;;;;;5070059;28;20037;-68
2022/10/08 05:20:39;;;;;;;7.85;2.72;;;;;;;;;;5054399;28;20091;-68
2022/10/08 05:23:06;;;;;;;4.40;2.83;;;;;;;;;;5050849;28;20049;-68
2022/10/08 05:25:33;;;;;;;8.68;2.60;;;;;;;;;;5049220;28;20099;-67
2022/10/08 05:28:02;;;;;;;11.32;2.63;;;;;;;;;;5066134;28;20045;-75
2022/10/08 05:30:28;;;;;;;12.18;3.80;;;;;;;;;;5068670;28;20029;-68
2022/10/08 05:32:54;;;;;;;6.40;2.70;;;;;;;;;;5069685;28;20562;-68
2022/10/08 05:35:20;;;;;;;9.52;3.42;;;;;;;;;;5051868;28;20138;-68
2022/10/08 05:37:46;;;;;;;8.10;5.07;;;;;;;;;;5053246;28;20050;-68
2022/10/08 05:40:12;;;;;;;6.68;3.40;;;;;;;;;;5054839;28;20535;-68
2022/10/08 05:42:39;;;;;;;10.23;3.00;;;;;;;;;;5071584;28;20033;-68
2022/10/08 05:45:05;;;;;;;4.80;2.67;;;;;;;;;;5054336;28;20170;-69
2022/10/08 05:47:31;;;;;;;11.05;3.30;;;;;;;;;;5053374;28;20045;-68
2022/10/08 05:49:57;;;;;;;6.00;2.90;;;;;;;;;;5070428;28;20111;-68
2022/10/08 05:52:25;;;;;;;5.28;2.53;;;;;;;;;;5070236;28;20041;-68
2022/10/08 05:54:51;;;;;;;5.93;2.60;;;;;;;;;;5070440;28;20144;-68
2022/10/08 05:57:18;;;;;;;5.80;2.90;;;;;;;;;;5055131;28;20103;-68
2022/10/08 05:59:44;;;;;;;13.75;3.53;;;;;;;;;;5066144;28;20038;-73
2022/10/08 06:02:10;;;;;;;10.95;2.75;;;;;;;;;;5067099;28;20975;-68
2022/10/08 06:04:36;;;;;;;6.47;3.13;;;;;;;;;;5053652;28;20036;-68
2022/10/08 06:07:02;;;;;;;10.02;3.25;;;;;;;;;;5050181;28;20061;-69
2022/10/08 06:09:29;;;;;;;13.68;3.15;;;;;;;;;;5068396;28;20055;-68
2022/10/08 06:11:55;;;;;;;7.80;3.15;;;;;;;;;;5054676;28;20549;-68
2022/10/08 06:14:23;;;;;;;10.43;3.58;;;;;;;;;;5069249;28;20029;-68
2022/10/08 06:16:49;;;;;;;6.25;2.22;;;;;;;;;;5071631;28;20041;-69
2022/10/08 06:19:15;;;;;;;8.23;3.58;;;;;;;;;;5058085;28;20041;-68
2022/10/08 06:21:41;;;;;;;6.90;2.88;;;;;;;;;;5069671;28;20045;-68
2022/10/08 06:24:08;;;;;;;6.63;3.50;;;;;;;;;;5072906;28;21196;-69
2022/10/08 06:26:36;;;;;;;9.80;3.30;;;;;;;;;;5056070;28;20053;-68
2022/10/08 06:29:07;;;;;;;10.45;3.80;;;;;;;;;;5057532;28;20047;-68
2022/10/08 06:31:34;;;;;;;7.20;3.63;;;;;;;;;;5054376;28;20037;-68
2022/10/08 06:34:02;;;;;;;8.55;3.92;;;;;;;;;;5057946;28;20045;-68
2022/10/08 06:36:29;;;;;;;7.70;3.38;;;;;;;;;;5070753;28;20404;-69
2022/10/08 06:38:56;;;;;;;10.65;4.00;;;;;;;;;;5065009;28;20099;-68
2022/10/08 06:41:23;;;;;;;15.27;5.75;;;;;;;;;;5055336;28;20045;-68
2022/10/08 06:43:49;;;;;;;6.10;2.47;;;;;;;;;;5052122;28;20056;-68
2022/10/08 06:46:16;;;;;;;7.75;3.45;;;;;;;;;;5069294;28;20045;-68
2022/10/08 06:48:42;;;;;;;10.00;5.15;;;;;;;;;;5050982;28;20041;-69
2022/10/08 06:51:12;;;;;;;6.45;3.80;;;;;;;;;;5055617;28;20072;-68
2022/10/08 06:53:39;;;;;;;5.80;3.80;;;;;;;;;;5057715;28;21268;-68
2022/10/08 06:56:06;;;;;;;7.53;4.93;;;;;;;;;;5070144;28;20048;-68
2022/10/08 06:58:34;;;;;;;13.57;5.85;;;;;;;;;;5057878;28;20071;-69
2022/10/08 07:01:03;;;;;;;8.35;5.05;;;;;;;;;;5053594;28;20047;-68
2022/10/08 07:03:29;;;;;;;8.93;4.68;;;;;;;;;;5055524;28;20045;-68
2022/10/08 07:05:55;;;;;;;11.65;6.38;;;;;;;;;;5056973;28;20048;-68
2022/10/08 07:08:21;;;;;;;10.65;4.78;;;;;;;;;;5072341;28;20466;-68
2022/10/08 07:10:48;;;;;;;9.68;4.07;;;;;;;;;;5069311;28;21705;-68
2022/10/08 07:13:14;;;;;;;10.27;5.82;;;;;;;;;;5069161;28;20076;-68
2022/10/08 07:15:40;;;;;;;10.80;3.97;;;;;;;;;;5070810;28;20048;-68
2022/10/08 07:18:10;;;;;;;15.63;4.90;;;;;;;;;;5054683;28;20092;-68
2022/10/08 07:20:36;;;;;;;16.33;3.60;;;;;;;;;;5054072;28;20577;-69
2022/10/08 07:23:02;;;;;;;10.68;5.78;;;;;;;;;;5064159;28;20053;-70
2022/10/08 07:25:28;;;;;;;11.57;3.67;;;;;;;;;;5070055;28;20060;-69
2022/10/08 07:27:55;;;;;;;22.85;4.03;;;;;;;;;;5052441;28;20049;-68
2022/10/08 07:30:21;;;;;;;8.25;3.10;;;;;;;;;;5050969;28;20523;-68
2022/10/08 07:32:47;;;;;;;15.07;4.53;;;;;;;;;;5049419;28;20589;-69
2022/10/08 07:35:13;;;;;;;12.80;3.13;;;;;;;;;;5047973;28;20094;-69
2022/10/08 07:37:42;;;;;;;10.23;2.45;;;;;;;;;;5053080;28;20120;-69
2022/10/08 07:40:08;;;;;;;11.02;3.63;;;;;;;;;;5051894;28;20042;-70
2022/10/08 07:42:34;;;;;;;6.97;3.00;;;;;;;;;;5048939;28;20048;-70
2022/10/08 07:45:00;;;;;;;10.57;3.03;;;;;;;;;;5066435;28;20056;-69
2022/10/08 07:47:26;;;;;;;20.70;4.68;;;;;;;;;;5050730;28;20040;-68
2022/10/08 07:49:52;;;;;;;8.18;3.20;;;;;;;;;;5060696;28;20156;-70
2022/10/08 07:52:19;;;;;;;8.30;3.35;;;;;;;;;;5062262;28;20167;-69
2022/10/08 07:54:45;;;;;;;17.10;3.70;;;;;;;;;;5051476;28;20056;-70
2022/10/08 07:57:11;;;;;;;12.45;4.47;;;;;;;;;;5054372;28;20075;-70
2022/10/08 07:59:37;;;;;;;5.90;3.95;;;;;;;;;;5051600;28;20095;-69
2022/10/08 08:02:03;;;;;;;23.35;4.35;;;;;;;;;;5045835;28;20053;-69
2022/10/08 08:04:29;;;;;;;11.57;2.80;;;;;;;;;;5065313;28;20907;-70
2022/10/08 08:06:55;;;;;;;16.13;4.43;;;;;;;;;;5067082;28;20068;-69
2022/10/08 08:09:21;;;;;;;11.80;3.35;;;;;;;;;;5065354;28;20036;-69
2022/10/08 08:11:48;;;;;;;7.43;2.17;;;;;;;;;;5052465;28;20451;-69
2022/10/08 08:14:14;;;;;;;17.17;3.42;;;;;;;;;;5049236;28;20134;-69
2022/10/08 08:16:40;;;;;;;10.93;2.28;;;;;;;;;;5063725;28;20052;-69
2022/10/08 08:19:07;;;;;;;17.25;2.70;;;;;;;;;;5062923;28;20049;-69
2022/10/08 08:21:36;;;;;;;16.05;3.25;;;;;;;;;;5050983;28;20033;-70
2022/10/08 08:24:06;;;;;;;5.72;2.33;;;;;;;;;;5048961;28;20045;-69
2022/10/08 08:26:33;;;;;;;11.80;3.45;;;;;;;;;;5061763;28;20134;-69
2022/10/08 08:29:00;;;;;;;11.25;3.58;;;;;;;;;;5049371;28;20525;-69
2022/10/08 08:31:28;;;;;;;12.50;3.10;;;;;;;;;;5051750;28;20041;-70
2022/10/08 08:33:59;;;;;;;16.67;3.83;;;;;;;;;;5051419;28;20045;-69
2022/10/08 08:36:26;;;;;;;16.15;4.43;;;;;;;;;;5051494;28;20067;-69
2022/10/08 08:38:52;;;;;;;8.18;2.45;;;;;;;;;;5062242;28;20168;-72
2022/10/08 08:41:28;;;;;;;11.02;2.47;;;;;;;;;;5066412;28;20062;-71
2022/10/08 08:43:58;;;;;;;9.65;3.10;;;;;;;;;;5049841;28;20041;-69
2022/10/08 08:46:25;;;;;;;15.27;3.20;;;;;;;;;;5051739;28;20096;-70
2022/10/08 08:48:53;;;;;;;10.60;1.92;;;;;;;;;;5066036;28;20055;-71
2022/10/08 08:51:19;;;;;;;10.40;3.10;;;;;;;;;;5055959;28;20122;-70
2022/10/08 08:53:45;;;;;;;12.15;2.58;;;;;;;;;;5054636;28;20038;-71
2022/10/08 08:56:12;;;;;;;15.70;2.35;;;;;;;;;;5055657;28;20056;-70
2022/10/08 08:58:50;;;;;;;10.38;2.35;;;;;;;;;;5071003;28;20037;-70
2022/10/08 09:01:20;;;;;;;11.95;3.20;;;;;;;;;;5064056;28;20131;-72
2022/10/08 09:03:51;;;;;;;11.13;2.88;;;;;;;;;;5050795;28;20041;-70
2022/10/08 09:06:18;;;;;;;5.37;2.63;;;;;;;;;;5051352;28;20156;-69
2022/10/08 09:08:50;;;;;;;10.65;2.30;;;;;;;;;;5068739;28;20052;-70
2022/10/08 09:11:16;;;;;;;;;;;;;;;;;;5056559;28;20045;-70
2022/10/08 09:13:56;;;;;;;7.72;1.63;;;;;;;;;;5073390;28;20330;-69
2022/10/08 09:16:22;;;;;;;14.35;3.45;;;;;;;;;;5053792;28;20037;-70
2022/10/08 09:18:50;;;;;;;6.88;3.00;;;;;;;;;;5055209;28;20041;-71
2022/10/08 09:21:16;;;;;;;13.90;2.80;;;;;;;;;;5063976;28;20090;-72
2022/10/08 09:23:43;;;;;;;10.75;2.75;;;;;;;;;;5055311;28;20073;-72
2022/10/08 09:26:25;;;;;;;7.25;2.65;;;;;;;;;;5056466;28;20049;-70
2022/10/08 09:28:58;;;;;;;9.63;2.45;;;;;;;;;;5061777;28;20071;-69
2022/10/08 09:31:30;;;;;;;9.77;2.70;;;;;;;;;;5071404;28;20905;-70
2022/10/08 09:34:05;;;;;;;7.25;2.90;;;;;;;;;;5056993;28;20039;-69
2022/10/08 09:36:34;;;;;;;9.63;2.60;;;;;;;;;;5072980;28;20146;-70
2022/10/08 09:39:01;;;;;;;5.47;1.63;;;;;;;;;;5074482;28;20048;-69
2022/10/08 09:41:28;;;;;;;13.40;2.05;;;;;;;;;;5073297;28;20088;-69
2022/10/08 09:44:09;;;;;;;10.77;2.20;;;;;;;;;;5059011;28;20147;-70
2022/10/08 09:46:35;;;;;;;14.23;2.10;;;;;;;;;;5075443;28;20548;-70
2022/10/08 09:49:21;;;;;;;9.93;1.98;;;;;;;;;;5059503;28;20044;-70
2022/10/08 09:51:49;;;;;;;11.02;3.13;;;;;;;;;;5058314;28;20766;-69
2022/10/08 09:54:18;;;;;;;13.13;2.13;;;;;;;;;;5059059;28;20131;-69
2022/10/08 09:56:51;;;;;;;4.57;2.05;;;;;;;;;;5058393;28;20096;-70
2022/10/08 09:59:18;;;;;;;6.65;1.50;;;;;;;;;;5075042;28;20048;-70
2022/10/08 10:01:44;;;;;;;7.45;1.77;;;;;;;;;;5065805;28;20522;-71
2022/10/08 10:04:16;;;;;;;8.98;2.13;;;;;;;;;;5059238;28;20071;-70
2022/10/08 10:06:47;;;;;;;13.43;2.95;;;;;;;;;;5059239;28;20043;-70
2022/10/08 10:09:33;;;;;;;9.00;1.50;;;;;;;;;;5060583;28;20120;-69
2022/10/08 10:12:03;;;;;;;6.45;1.80;;;;;;;;;;5073168;28;20136;-69
2022/10/08 10:14:49;;;;;;;6.05;2.50;;;;;;;;;;5058305;28;20119;-69
2022/10/08 10:17:22;;;;;;;17.92;3.28;;;;;;;;;;5057497;28;20045;-69
2022/10/08 10:19:55;;;;;;;14.52;3.17;;;;;;;;;;5059807;28;20041;-69
2022/10/08 10:22:25;;;;;;;9.15;1.92;;;;;;;;;;5074473;28;20073;-70
2022/10/08 10:24:51;;;;;;;11.07;2.55;;;;;;;;;;5059391;28;20581;-72
2022/10/08 10:27:33;;;;;;;10.20;2.15;;;;;;;;;;5057668;28;20590;-70
2022/10/08 10:30:02;;;;;;;4.68;1.70;;;;;;;;;;5051834;28;20037;-70
2022/10/08 10:32:32;;;;;;;9.70;3.10;;;;;;;;;;5056256;28;20192;-69
2022/10/08 10:35:03;;;;;;;8.90;2.00;;;;;;;;;;5051850;28;20041;-69
2022/10/08 10:37:32;;;;;;;7.25;3.20;;;;;;;;;;5056202;28;20037;-70
2022/10/08 10:40:04;;;;;;;7.38;1.90;;;;;;;;;;5075469;28;20052;-70
2022/10/08 10:42:42;;;;;;;10.02;2.03;;;;;;;;;;5058158;28;20032;-70
2022/10/08 10:45:20;;;;;;;17.08;3.00;;;;;;;;;;5057057;28;20049;-70
2022/10/08 10:47:47;;;;;;;6.80;1.83;;;;;;;;;;5066701;28;20491;-69
2022/10/08 10:50:13;;;;;;;9.00;2.30;;;;;;;;;;5056103;28;21021;-69
2022/10/08 10:52:52;;;;;;;11.55;2.20;;;;;;;;;;5071454;28;20760;-76
2022/10/08 10:55:21;;;;;;;10.32;2.83;;;;;;;;;;5054766;28;20064;-72
2022/10/08 10:58:09;;;;;;;8.23;1.73;;;;;;;;;;5070731;28;20037;-76
2022/10/08 11:00:54;;;;;;;4.97;1.80;;;;;;;;;;5069872;28;20045;-69
2022/10/08 11:03:26;;;;;;;5.05;1.23;;;;;;;;;;5073185;28;20052;-69
2022/10/08 11:06:19;;;;;;;7.00;1.73;;;;;;;;;;5056458;28;20036;-69
2022/10/08 11:09:05;;;;;;;9.30;2.40;;;;;;;;;;5056554;28;20065;-69
2022/10/08 11:11:37;;;;;;;13.95;2.38;;;;;;;;;;5043053;28;20387;-69
2022/10/08 11:14:03;;;;;;;;;;;;;;;;;;5056246;28;20566;-70
2022/10/08 11:16:35;;;;;;;6.07;2.67;;;;;;;;;;5056700;28;19920;-75
2022/10/08 11:19:02;;;;;;;17.52;2.88;;;;;;;;;;5056498;28;20110;-74
2022/10/08 11:21:34;;;;;;;6.63;2.22;;;;;;;;;;5053581;28;20052;-74
2022/10/08 11:24:19;;;;;;;9.00;2.85;;;;;;;;;;5071669;28;20652;-73
2022/10/08 11:26:52;;;;;;;8.48;2.10;;;;;;;;;;5062581;28;20060;-72
2022/10/08 11:29:28;;;;;;;6.90;2.47;;;;;;;;;;5072356;28;20048;-69
2022/10/08 11:31:54;;;;;;;8.35;2.80;;;;;;;;;;5054464;28;20060;-69
2022/10/08 11:34:21;;;;;;;5.40;1.92;;;;;;;;;;5068992;28;20596;-69
2022/10/08 11:36:51;;;;;;;6.45;1.83;;;;;;;;;;5068449;28;20052;-69
2022/10/08 11:39:20;;;;;;;9.82;3.03;;;;;;;;;;5072653;28;20878;-69
2022/10/08 11:41:52;;;;;;;5.22;1.60;;;;;;;;;;5068942;28;20569;-70
2022/10/08 11:44:19;;;;;;;5.85;1.48;;;;;;;;;;5054495;28;20128;-69
2022/10/08 11:46:46;;;;;;;7.18;2.08;;;;;;;;;;5054583;28;20049;-69
2022/10/08 11:49:15;;;;;;;8.90;4.00;;;;;;;;;;5054059;28;20045;-69
2022/10/08 11:51:42;;;;;;;8.15;2.30;;;;;;;;;;5054350;28;20037;-69
2022/10/08 11:54:08;;;;;;;8.25;2.05;;;;;;;;;;5052678;28;20095;-70
2022/10/08 11:56:38;;;;;;;7.20;2.50;;;;;;;;;;5069710;28;20894;-69
2022/10/08 11:59:16;;;;;;;4.90;2.13;;;;;;;;;;5055152;28;22149;-69
2022/10/08 12:01:56;;;;;;;10.50;2.63;;;;;;;;;;5053478;28;20117;-74
2022/10/08 12:04:28;;;;;;;4.43;1.40;;;;;;;;;;5052487;28;21514;-69
2022/10/08 12:07:02;;;;;;;16.98;2.22;;;;;;;;;;5063666;28;20045;-69
2022/10/08 12:09:48;;;;;;;7.15;2.08;;;;;;;;;;5053555;28;20195;-69
2022/10/08 12:12:16;;;;;;;8.98;3.42;;;;;;;;;;5060094;28;20091;-69
2022/10/08 12:14:46;;;;;;;7.32;1.75;;;;;;;;;;5069331;28;20049;-69
2022/10/08 12:17:13;;;;;;;8.00;3.30;;;;;;;;;;5052754;28;20063;-70
2022/10/08 12:19:43;;;;;;;8.85;1.30;;;;;;;;;;5055062;28;20044;-70
2022/10/08 12:22:15;;;;;;;7.22;1.90;;;;;;;;;;5057546;28;20113;-69
2022/10/08 12:24:45;;;;;;;6.32;2.60;;;;;;;;;;5050855;28;20045;-69
2022/10/08 12:27:31;;;;;;;9.43;2.25;;;;;;;;;;5054726;28;20041;-70
2022/10/08 12:30:04;;;;;;;3.47;1.40;;;;;;;;;;5071158;28;20037;-70
2022/10/08 12:32:43;;;;;;;5.18;1.52;;;;;;;;;;5067691;28;20052;-69
2022/10/08 12:35:23;;;;;;;5.50;1.40;;;;;;;;;;5070522;28;20060;-74
2022/10/08 12:37:52;;;;;;;4.43;1.40;;;;;;;;;;5048257;28;20092;-69
2022/10/08 12:40:24;;;;;;;6.43;2.00;;;;;;;;;;5051257;28;20048;-70
2022/10/08 12:42:50;;;;;;;;;;;;;;;;;;5055819;28;20099;-69
2022/10/08 12:45:25;;;;;;;9.05;1.88;;;;;;;;;;5067690;28;19931;-69
2022/10/08 12:48:04;;;;;;;8.38;1.98;;;;;;;;;;5060247;28;20045;-69
2022/10/08 12:50:56;;;;;;;7.28;2.88;;;;;;;;;;5054156;28;20041;-69
2022/10/08 12:53:22;;;;;;;7.65;1.67;;;;;;;;;;5052343;28;20057;-69
2022/10/08 12:55:51;;;;;;;8.23;1.85;;;;;;;;;;5060669;28;20041;-69
2022/10/08 12:58:19;;;;;;;7.47;1.63;;;;;;;;;;5054509;28;20041;-69
2022/10/08 13:00:49;;;;;;;6.25;1.77;;;;;;;;;;5057219;28;20099;-69
2022/10/08 13:03:18;;;;;;;6.28;1.65;;;;;;;;;;5049331;28;20143;-71
2022/10/08 13:05:45;;;;;;;9.65;1.80;;;;;;;;;;5051919;28;20562;-69
2022/10/08 13:08:20;;;;;;;5.45;1.58;;;;;;;;;;5054624;28;20049;-71
2022/10/08 13:10:46;;;;;;;8.43;1.67;;;;;;;;;;5054737;28;20039;-70
2022/10/08 13:13:31;;;;;;;3.97;1.60;;;;;;;;;;5056916;28;20660;-69
2022/10/08 13:15:58;;;;;;;7.03;1.65;;;;;;;;;;5063633;28;20049;-69
2022/10/08 13:18:24;;;;;;;10.38;1.55;;;;;;;;;;5054146;28;20519;-69
2022/10/08 13:20:57;;;;;;;13.70;3.13;;;;;;;;;;5070772;28;20041;-68
2022/10/08 13:23:24;;;;;;;4.70;1.60;;;;;;;;;;5071852;28;20470;-69
2022/10/08 13:25:50;;;;;;;6.68;1.60;;;;;;;;;;5055873;28;20060;-69
2022/10/08 13:28:21;;;;;;;5.72;1.75;;;;;;;;;;5057737;28;20646;-69
2022/10/08 13:30:47;;;;;;;4.45;2.05;;;;;;;;;;5056679;28;20048;-69
2022/10/08 13:33:21;;;;;;;5.78;1.50;;;;;;;;;;5055717;28;20938;-69
2022/10/08 13:35:52;;;;;;;5.38;1.40;;;;;;;;;;5064124;28;20057;-69
2022/10/08 13:38:21;;;;;;;2.90;2.03;;;;;;;;;;5057119;28;20045;-69
2022/10/08 13:40:51;;;;;;;6.43;1.80;;;;;;;;;;5056445;28;20160;-69
2022/10/08 13:43:17;;;;;;;7.22;1.48;;;;;;;;;;5070813;28;20120;-69
2022/10/08 13:45:44;;;;;;;3.90;1.83;;;;;;;;;;5071142;28;20724;-69
2022/10/08 13:48:11;;;;;;;7.63;1.48;;;;;;;;;;5062969;28;20431;-68
2022/10/08 13:50:41;;;;;;;10.13;1.90;;;;;;;;;;5055120;28;20056;-68
2022/10/08 13:53:09;;;;;;;5.32;1.98;;;;;;;;;;5055242;28;20171;-68
2022/10/08 13:55:36;;;;;;;7.93;1.70;;;;;;;;;;5055239;28;20049;-69
2022/10/08 13:58:03;;;;;;;9.20;1.80;;;;;;;;;;5071137;28;20049;-69
2022/10/08 14:00:30;;;;;;;5.38;1.67;;;;;;;;;;5068384;28;20038;-68
2022/10/08 14:02:57;;;;;;;6.80;1.42;;;;;;;;;;5055170;28;20049;-69
2022/10/08 14:05:23;;;;;;;6.45;1.95;;;;;;;;;;5069698;28;20060;-69
2022/10/08 14:07:52;;;;;;;8.85;2.17;;;;;;;;;;5054836;28;20084;-69
2022/10/08 14:10:18;;;;;;;11.90;2.38;;;;;;;;;;5055430;28;20041;-69
2022/10/08 14:12:44;;;;;;;5.07;1.98;;;;;;;;;;5069799;28;20037;-69
2022/10/08 14:15:11;;;;;;;4.10;2.05;;;;;;;;;;5069601;28;20049;-69
2022/10/08 14:17:38;;;;;;;3.67;1.50;;;;;;;;;;5054937;28;20550;-69
2022/10/08 14:20:04;;;;;;;6.05;1.60;;;;;;;;;;5062712;28;20045;-69
2022/10/08 14:22:37;;;;;;;8.18;1.60;;;;;;;;;;5057751;28;20523;-69
2022/10/08 14:25:04;;;;;;;3.78;1.20;;;;;;;;;;5074936;28;20618;-69
2022/10/08 14:27:30;;;;;;;7.68;1.73;;;;;;;;;;5057884;28;20501;-69
2022/10/08 14:29:56;;;;;;;5.03;1.42;;;;;;;;;;5059142;28;20044;-69
2022/10/08 14:32:22;;;;;;;4.93;1.33;;;;;;;;;;5058333;28;20056;-69
2022/10/08 14:34:49;;;;;;;6.18;1.83;;;;;;;;;;5058027;28;20593;-69
2022/10/08 14:37:15;;;;;;;8.20;1.48;;;;;;;;;;5073417;28;20070;-69
2022/10/08 14:39:41;;;;;;;3.10;1.15;;;;;;;;;;5073214;28;20127;-69
2022/10/08 14:42:07;;;;;;;4.07;1.48;;;;;;;;;;5067089;28;20438;-69
2022/10/08 14:44:33;;;;;;;4.22;1.92;;;;;;;;;;5066295;28;20795;-69
2022/10/08 14:46:59;;;;;;;7.13;1.40;;;;;;;;;;5068479;28;20511;-69
2022/10/08 14:49:25;;;;;;;5.60;1.13;;;;;;;;;;5057343;28;20033;-69
2022/10/08 14:51:51;;;;;;;6.00;2.13;;;;;;;;;;5050481;28;20052;-69